sensor_id;sensor_type;location;lat;lon;timestamp;pressure;altitude;pressure_sealevel;temperature;humidity
14242;BME280;7205;50.864;12.766;2023-11-19T00:00:50;97459.47;;;6.98;100.00
14242;BME280;7205;50.864;12.766;2023-11-19T00:03:17;97457.53;;;7.00;100.00
14242;BME280;7205;50.864;12.766;2023-11-19T00:05:44;97463.63;;;7.09;100.00
14242;BME280;7205;50.864;12.766;2023-11-19T00:08:12;97448.06;;;7.07;100.00
14242;BME280;7205;50.864;12.766;2023-11-19T00:10:39;97460.53;;;7.13;100.00
14242;BME280;7205;50.864;12.766;2023-11-19T00:13:06;97470.25;;;7.21;100.00
14242;BME280;7205;50.864;12.766;2023-11-19T00:15:49;97460.25;;;7.24;100.00
14242;BME280;7205;50.864;12.766;2023-11-19T00:18:21;97451.03;;;7.20;100.00
14242;BME280;7205;50.864;12.766;2023-11-19T00:20:48;97440.56;;;7.28;100.00
14242;BME280;7205;50.864;12.766;2023-11-19T00:23:15;97441.41;;;7.29;100.00
14242;BME280;7205;50.864;12.766;2023-11-19T00:25:42;97439.44;;;7.31;100.00
14242;BME280;7205;50.864;12.766;2023-11-19T00:28:09;97446.03;;;7.35;100.00
14242;BME280;7205;50.864;12.766;2023-11-19T00:30:42;97431.41;;;7.32;100.00
14242;BME280;7205;50.864;12.766;2023-11-19T00:33:12;97420.06;;;7.32;100.00
14242;BME280;7205;50.864;12.766;2023-11-19T00:35:39;97417.94;;;7.35;100.00
14242;BME280;7205;50.864;12.766;2023-11-19T00:38:06;97413.00;;;7.32;100.00
14242;BME280;7205;50.864;12.766;2023-11-19T00:40:33;97420.09;;;7.40;100.00
14242;BME280;7205;50.864;12.766;2023-11-19T00:43:06;97409.25;;;7.35;100.00
14242;BME280;7205;50.864;12.766;2023-11-19T00:45:34;97403.84;;;7.36;100.00
14242;BME280;7205;50.864;12.766;2023-11-19T00:48:01;97407.09;;;7.38;100.00
14242;BME280;7205;50.864;12.766;2023-11-19T00:50:29;97401.06;;;7.38;100.00
14242;BME280;7205;50.864;12.766;2023-11-19T00:55:44;97382.50;;;7.39;100.00
14242;BME280;7205;50.864;12.766;2023-11-19T00:58:17;97370.34;;;7.38;100.00
14242;BME280;7205;50.864;12.766;2023-11-19T01:00:44;97366.25;;;7.44;100.00
14242;BME280;7205;50.864;12.766;2023-11-19T01:03:11;97361.84;;;7.44;100.00
14242;BME280;7205;50.864;12.766;2023-11-19T01:05:42;97359.88;;;7.46;100.00
14242;BME280;7205;50.864;12.766;2023-11-19T01:08:09;97361.34;;;7.49;100.00
14242;BME280;7205;50.864;12.766;2023-11-19T01:10:36;97341.66;;;7.45;100.00
14242;BME280;7205;50.864;12.766;2023-11-19T01:13:03;97337.03;;;7.47;100.00
14242;BME280;7205;50.864;12.766;2023-11-19T01:15:31;97336.22;;;7.46;100.00
14242;BME280;7205;50.864;12.766;2023-11-19T01:18:00;97325.41;;;7.41;100.00
14242;BME280;7205;50.864;12.766;2023-11-19T01:20:27;97325.56;;;7.40;100.00
14242;BME280;7205;50.864;12.766;2023-11-19T01:22:55;97345.25;;;7.44;100.00
14242;BME280;7205;50.864;12.766;2023-11-19T01:25:23;97319.47;;;7.39;100.00
14242;BME280;7205;50.864;12.766;2023-11-19T01:28:01;97320.94;;;7.42;100.00
14242;BME280;7205;50.864;12.766;2023-11-19T01:30:31;97312.44;;;7.40;100.00
14242;BME280;7205;50.864;12.766;2023-11-19T01:32:59;97294.19;;;7.38;100.00
14242;BME280;7205;50.864;12.766;2023-11-19T01:35:28;97291.56;;;7.38;100.00
14242;BME280;7205;50.864;12.766;2023-11-19T01:37:56;97289.75;;;7.39;100.00
14242;BME280;7205;50.864;12.766;2023-11-19T01:40:23;97278.13;;;7.41;100.00
14242;BME280;7205;50.864;12.766;2023-11-19T01:42:52;97272.69;;;7.43;100.00
14242;BME280;7205;50.864;12.766;2023-11-19T01:45:26;97261.88;;;7.38;100.00
14242;BME280;7205;50.864;12.766;2023-11-19T01:48:02;97265.47;;;7.37;100.00
14242;BME280;7205;50.864;12.766;2023-11-19T01:50:37;97260.88;;;7.39;100.00
14242;BME280;7205;50.864;12.766;2023-11-19T01:53:08;97241.66;;;7.38;100.00
14242;BME280;7205;50.864;12.766;2023-11-19T01:55:35;97249.84;;;7.43;100.00
14242;BME280;7205;50.864;12.766;2023-11-19T01:58:04;97235.25;;;7.49;100.00
14242;BME280;7205;50.864;12.766;2023-11-19T02:00:41;97231.97;;;7.47;100.00
14242;BME280;7205;50.864;12.766;2023-11-19T02:03:08;97215.41;;;7.46;100.00
14242;BME280;7205;50.864;12.766;2023-11-19T02:05:36;97209.00;;;7.49;100.00
14242;BME280;7205;50.864;12.766;2023-11-19T02:08:14;97205.38;;;7.50;100.00
14242;BME280;7205;50.864;12.766;2023-11-19T02:10:43;97207.03;;;7.51;100.00
14242;BME280;7205;50.864;12.766;2023-11-19T02:13:10;97202.09;;;7.56;100.00
14242;BME280;7205;50.864;12.766;2023-11-19T02:15:39;97191.56;;;7.56;100.00
14242;BME280;7205;50.864;12.766;2023-11-19T02:18:21;97190.44;;;7.50;100.00
14242;BME280;7205;50.864;12.766;2023-11-19T02:20:53;97196.50;;;7.51;100.00
14242;BME280;7205;50.864;12.766;2023-11-19T02:23:25;97182.53;;;7.50;100.00
14242;BME280;7205;50.864;12.766;2023-11-19T02:26:02;97185.34;;;7.49;100.00
14242;BME280;7205;50.864;12.766;2023-11-19T02:28:36;97176.81;;;7.47;100.00
14242;BME280;7205;50.864;12.766;2023-11-19T02:31:11;97174.00;;;7.48;100.00
14242;BME280;7205;50.864;12.766;2023-11-19T02:33:38;97152.19;;;7.48;100.00
14242;BME280;7205;50.864;12.766;2023-11-19T02:36:06;97161.19;;;7.53;100.00
14242;BME280;7205;50.864;12.766;2023-11-19T02:38:34;97151.19;;;7.49;100.00
14242;BME280;7205;50.864;12.766;2023-11-19T02:41:03;97144.97;;;7.50;100.00
14242;BME280;7205;50.864;12.766;2023-11-19T02:43:32;97137.72;;;7.52;100.00
14242;BME280;7205;50.864;12.766;2023-11-19T02:46:03;97147.75;;;7.56;100.00
14242;BME280;7205;50.864;12.766;2023-11-19T02:48:32;97148.38;;;7.58;100.00
14242;BME280;7205;50.864;12.766;2023-11-19T02:51:00;97127.34;;;7.58;100.00
14242;BME280;7205;50.864;12.766;2023-11-19T02:53:28;97116.41;;;7.55;100.00
14242;BME280;7205;50.864;12.766;2023-11-19T02:55:55;97110.63;;;7.59;100.00
14242;BME280;7205;50.864;12.766;2023-11-19T02:58:27;97096.19;;;7.55;100.00
14242;BME280;7205;50.864;12.766;2023-11-19T03:00:56;97096.00;;;7.57;100.00
14242;BME280;7205;50.864;12.766;2023-11-19T03:03:37;97100.44;;;7.64;100.00
14242;BME280;7205;50.864;12.766;2023-11-19T03:06:06;97084.19;;;7.61;100.00
14242;BME280;7205;50.864;12.766;2023-11-19T03:08:35;97070.03;;;7.62;100.00
14242;BME280;7205;50.864;12.766;2023-11-19T03:11:05;97062.47;;;7.67;100.00
14242;BME280;7205;50.864;12.766;2023-11-19T03:13:38;97061.84;;;7.65;100.00
14242;BME280;7205;50.864;12.766;2023-11-19T03:16:09;97060.31;;;7.71;100.00
14242;BME280;7205;50.864;12.766;2023-11-19T03:18:38;97058.88;;;7.68;100.00
14242;BME280;7205;50.864;12.766;2023-11-19T03:21:11;97060.97;;;7.73;100.00
14242;BME280;7205;50.864;12.766;2023-11-19T03:23:39;97041.63;;;7.74;100.00
14242;BME280;7205;50.864;12.766;2023-11-19T03:26:06;97035.19;;;7.76;100.00
14242;BME280;7205;50.864;12.766;2023-11-19T03:28:34;97016.59;;;7.78;100.00
14242;BME280;7205;50.864;12.766;2023-11-19T03:31:03;97008.38;;;7.81;100.00
14242;BME280;7205;50.864;12.766;2023-11-19T03:33:39;97006.75;;;7.80;100.00
14242;BME280;7205;50.864;12.766;2023-11-19T03:36:14;97036.47;;;7.80;100.00
14242;BME280;7205;50.864;12.766;2023-11-19T03:38:45;97037.81;;;7.76;100.00
14242;BME280;7205;50.864;12.766;2023-11-19T03:41:12;97031.06;;;7.82;100.00
14242;BME280;7205;50.864;12.766;2023-11-19T03:43:45;97025.78;;;7.82;100.00
14242;BME280;7205;50.864;12.766;2023-11-19T03:46:17;97019.34;;;7.84;100.00
14242;BME280;7205;50.864;12.766;2023-11-19T03:48:46;97001.31;;;7.81;100.00
14242;BME280;7205;50.864;12.766;2023-11-19T03:51:16;97012.47;;;7.83;100.00
14242;BME280;7205;50.864;12.766;2023-11-19T03:53:43;97011.31;;;7.86;100.00
14242;BME280;7205;50.864;12.766;2023-11-19T03:56:10;97013.59;;;7.89;100.00
14242;BME280;7205;50.864;12.766;2023-11-19T03:58:38;97014.06;;;7.92;100.00
14242;BME280;7205;50.864;12.766;2023-11-19T04:01:05;97017.97;;;7.96;100.00
14242;BME280;7205;50.864;12.766;2023-11-19T04:03:32;97016.19;;;7.97;100.00
14242;BME280;7205;50.864;12.766;2023-11-19T04:06:00;97015.53;;;7.95;100.00
14242;BME280;7205;50.864;12.766;2023-11-19T04:08:27;97017.63;;;7.99;100.00
14242;BME280;7205;50.864;12.766;2023-11-19T04:10:54;97020.91;;;8.01;100.00
14242;BME280;7205;50.864;12.766;2023-11-19T04:13:21;97021.03;;;8.08;100.00
14242;BME280;7205;50.864;12.766;2023-11-19T04:15:49;97021.19;;;8.06;100.00
14242;BME280;7205;50.864;12.766;2023-11-19T04:18:16;97008.69;;;8.08;100.00
14242;BME280;7205;50.864;12.766;2023-11-19T04:20:43;97003.91;;;8.12;100.00
14242;BME280;7205;50.864;12.766;2023-11-19T04:23:11;96995.84;;;8.13;100.00
14242;BME280;7205;50.864;12.766;2023-11-19T04:25:38;97001.22;;;8.20;100.00
14242;BME280;7205;50.864;12.766;2023-11-19T04:28:05;96988.72;;;8.22;100.00
14242;BME280;7205;50.864;12.766;2023-11-19T04:30:32;96968.19;;;8.25;100.00
14242;BME280;7205;50.864;12.766;2023-11-19T04:33:00;96977.69;;;8.26;100.00
14242;BME280;7205;50.864;12.766;2023-11-19T04:35:27;96968.19;;;8.25;100.00
14242;BME280;7205;50.864;12.766;2023-11-19T04:37:54;96976.06;;;8.25;100.00
14242;BME280;7205;50.864;12.766;2023-11-19T04:40:24;96970.81;;;8.25;100.00
14242;BME280;7205;50.864;12.766;2023-11-19T04:42:50;96972.78;;;8.23;100.00
14242;BME280;7205;50.864;12.766;2023-11-19T04:45:17;96971.28;;;8.21;100.00
14242;BME280;7205;50.864;12.766;2023-11-19T04:47:50;96978.06;;;8.23;100.00
14242;BME280;7205;50.864;12.766;2023-11-19T04:50:17;96967.53;;;8.23;100.00
14242;BME280;7205;50.864;12.766;2023-11-19T04:52:44;96969.16;;;8.24;100.00
14242;BME280;7205;50.864;12.766;2023-11-19T04:55:12;96974.56;;;8.23;100.00
14242;BME280;7205;50.864;12.766;2023-11-19T04:57:41;96965.56;;;8.25;100.00
14242;BME280;7205;50.864;12.766;2023-11-19T05:00:17;96971.00;;;8.24;100.00
14242;BME280;7205;50.864;12.766;2023-11-19T05:02:44;96973.63;;;8.24;100.00
14242;BME280;7205;50.864;12.766;2023-11-19T05:05:11;96980.31;;;8.26;100.00
14242;BME280;7205;50.864;12.766;2023-11-19T05:07:38;96978.06;;;8.23;100.00
14242;BME280;7205;50.864;12.766;2023-11-19T05:10:08;96973.63;;;8.24;100.00
14242;BME280;7205;50.864;12.766;2023-11-19T05:12:54;96973.63;;;8.24;100.00
14242;BME280;7205;50.864;12.766;2023-11-19T05:15:22;96981.50;;;8.24;100.00
14242;BME280;7205;50.864;12.766;2023-11-19T05:17:49;96972.63;;;8.25;100.00
14242;BME280;7205;50.864;12.766;2023-11-19T05:20:16;96968.97;;;8.26;100.00
14242;BME280;7205;50.864;12.766;2023-11-19T05:22:43;96951.84;;;8.30;100.00
14242;BME280;7205;50.864;12.766;2023-11-19T05:25:11;96950.06;;;8.30;100.00
14242;BME280;7205;50.864;12.766;2023-11-19T05:27:38;96950.53;;;8.34;100.00
14242;BME280;7205;50.864;12.766;2023-11-19T05:30:06;96914.22;;;8.29;100.00
14242;BME280;7205;50.864;12.766;2023-11-19T05:32:35;96920.75;;;8.33;100.00
14242;BME280;7205;50.864;12.766;2023-11-19T05:35:03;96923.84;;;8.37;100.00
14242;BME280;7205;50.864;12.766;2023-11-19T05:37:29;96934.84;;;8.40;100.00
14242;BME280;7205;50.864;12.766;2023-11-19T05:40:06;96944.53;;;8.40;100.00
14242;BME280;7205;50.864;12.766;2023-11-19T05:42:39;96946.53;;;8.38;100.00
14242;BME280;7205;50.864;12.766;2023-11-19T05:45:11;96947.81;;;8.42;100.00
14242;BME280;7205;50.864;12.766;2023-11-19T05:47:38;96934.94;;;8.47;100.00
14242;BME280;7205;50.864;12.766;2023-11-19T05:50:06;96916.88;;;8.44;100.00
14242;BME280;7205;50.864;12.766;2023-11-19T05:52:34;96911.91;;;8.49;100.00
14242;BME280;7205;50.864;12.766;2023-11-19T05:55:06;96934.38;;;8.51;100.00
14242;BME280;7205;50.864;12.766;2023-11-19T05:57:35;96927.31;;;8.52;100.00
14242;BME280;7205;50.864;12.766;2023-11-19T06:00:03;96931.03;;;8.57;100.00
14242;BME280;7205;50.864;12.766;2023-11-19T06:02:40;96923.13;;;8.57;100.00
14242;BME280;7205;50.864;12.766;2023-11-19T06:05:07;96908.34;;;8.56;100.00
14242;BME280;7205;50.864;12.766;2023-11-19T06:07:38;96921.97;;;8.60;100.00
14242;BME280;7205;50.864;12.766;2023-11-19T06:10:07;96917.53;;;8.60;100.00
14242;BME280;7205;50.864;12.766;2023-11-19T06:12:35;96920.44;;;8.65;100.00
14242;BME280;7205;50.864;12.766;2023-11-19T06:15:13;96915.63;;;8.69;100.00
14242;BME280;7205;50.864;12.766;2023-11-19T06:17:44;96917.25;;;8.70;100.00
14242;BME280;7205;50.864;12.766;2023-11-19T06:20:11;96902.47;;;8.69;100.00
14242;BME280;7205;50.864;12.766;2023-11-19T06:22:39;96895.19;;;8.71;100.00
14242;BME280;7205;50.864;12.766;2023-11-19T06:25:11;96899.75;;;8.77;100.00
14242;BME280;7205;50.864;12.766;2023-11-19T06:27:40;96898.56;;;8.79;100.00
14242;BME280;7205;50.864;12.766;2023-11-19T06:30:10;96904.66;;;8.80;100.00
14242;BME280;7205;50.864;12.766;2023-11-19T06:32:46;96904.47;;;8.81;100.00
14242;BME280;7205;50.864;12.766;2023-11-19T06:35:18;96903.44;;;8.82;100.00
14242;BME280;7205;50.864;12.766;2023-11-19T06:37:45;96933.69;;;8.86;100.00
14242;BME280;7205;50.864;12.766;2023-11-19T06:40:19;96925.16;;;8.84;100.00
14242;BME280;7205;50.864;12.766;2023-11-19T06:42:49;96923.16;;;8.86;100.00
14242;BME280;7205;50.864;12.766;2023-11-19T06:45:17;96930.03;;;8.87;100.00
14242;BME280;7205;50.864;12.766;2023-11-19T06:47:48;96917.53;;;8.89;100.00
14242;BME280;7205;50.864;12.766;2023-11-19T06:50:17;96929.34;;;8.94;100.00
14242;BME280;7205;50.864;12.766;2023-11-19T06:52:44;96914.38;;;8.94;100.00
14242;BME280;7205;50.864;12.766;2023-11-19T06:55:11;96903.84;;;8.94;100.00
14242;BME280;7205;50.864;12.766;2023-11-19T06:57:38;96914.38;;;8.94;100.00
14242;BME280;7205;50.864;12.766;2023-11-19T07:00:09;96923.06;;;8.95;100.00
14242;BME280;7205;50.864;12.766;2023-11-19T07:02:37;96951.03;;;8.96;100.00
14242;BME280;7205;50.864;12.766;2023-11-19T07:05:08;96944.31;;;8.93;100.00
14242;BME280;7205;50.864;12.766;2023-11-19T07:07:34;96955.56;;;9.02;100.00
14242;BME280;7205;50.864;12.766;2023-11-19T07:10:01;96963.91;;;9.05;100.00
14242;BME280;7205;50.864;12.766;2023-11-19T07:12:34;96963.53;;;9.08;100.00
14242;BME280;7205;50.864;12.766;2023-11-19T07:15:05;96945.31;;;9.07;100.00
14242;BME280;7205;50.864;12.766;2023-11-19T07:17:33;96941.66;;;9.08;100.00
14242;BME280;7205;50.864;12.766;2023-11-19T07:20:05;96950.84;;;9.12;100.00
14242;BME280;7205;50.864;12.766;2023-11-19T07:26:07;96940.22;;;9.05;100.00
14242;BME280;7205;50.864;12.766;2023-11-19T07:28:35;96947.09;;;9.06;100.00
14242;BME280;7205;50.864;12.766;2023-11-19T07:31:04;96949.03;;;9.12;100.00
14242;BME280;7205;50.864;12.766;2023-11-19T07:33:36;96943.75;;;9.12;100.00
14242;BME280;7205;50.864;12.766;2023-11-19T07:36:03;96973.97;;;9.16;100.00
14242;BME280;7205;50.864;12.766;2023-11-19T07:38:35;96968.00;;;9.22;100.00
14242;BME280;7205;50.864;12.766;2023-11-19T07:41:02;96959.09;;;9.23;100.00
14242;BME280;7205;50.864;12.766;2023-11-19T07:43:38;96960.56;;;9.26;100.00
14242;BME280;7205;50.864;12.766;2023-11-19T07:46:06;96967.34;;;9.20;100.00
14242;BME280;7205;50.864;12.766;2023-11-19T07:48:40;96962.66;;;9.16;100.00
14242;BME280;7205;50.864;12.766;2023-11-19T07:51:08;96968.25;;;9.13;100.00
14242;BME280;7205;50.864;12.766;2023-11-19T07:53:36;96975.72;;;9.09;100.00
14242;BME280;7205;50.864;12.766;2023-11-19T07:56:04;96980.16;;;9.09;100.00
14242;BME280;7205;50.864;12.766;2023-11-19T07:58:31;96976.63;;;9.16;100.00
14242;BME280;7205;50.864;12.766;2023-11-19T08:01:01;96987.78;;;9.18;100.00
14242;BME280;7205;50.864;12.766;2023-11-19T08:03:28;96997.69;;;9.31;100.00
14242;BME280;7205;50.864;12.766;2023-11-19T08:05:59;96996.06;;;9.44;100.00
14242;BME280;7205;50.864;12.766;2023-11-19T08:08:29;96984.00;;;9.56;100.00
14242;BME280;7205;50.864;12.766;2023-11-19T08:10:59;96980.72;;;9.69;100.00
14242;BME280;7205;50.864;12.766;2023-11-19T08:13:29;96990.50;;;9.75;100.00
14242;BME280;7205;50.864;12.766;2023-11-19T08:15:59;96981.25;;;9.79;100.00
14242;BME280;7205;50.864;12.766;2023-11-19T08:18:26;96971.78;;;9.84;100.00
14242;BME280;7205;50.864;12.766;2023-11-19T08:20:56;96971.22;;;9.89;100.00
14242;BME280;7205;50.864;12.766;2023-11-19T08:23:24;96967.03;;;9.94;100.00
14242;BME280;7205;50.864;12.766;2023-11-19T08:25:51;96973.78;;;10.03;100.00
14242;BME280;7205;50.864;12.766;2023-11-19T08:28:19;96984.78;;;10.07;100.00
14242;BME280;7205;50.864;12.766;2023-11-19T08:30:46;96976.31;;;10.11;100.00
14242;BME280;7205;50.864;12.766;2023-11-19T08:33:13;96974.13;;;10.15;100.00
14242;BME280;7205;50.864;12.766;2023-11-19T08:35:40;96993.47;;;10.22;100.00
14242;BME280;7205;50.864;12.766;2023-11-19T08:38:07;96992.75;;;10.28;100.00
14242;BME280;7205;50.864;12.766;2023-11-19T08:40:34;96987.53;;;10.35;100.00
14242;BME280;7205;50.864;12.766;2023-11-19T08:43:07;96987.38;;;10.43;100.00
14242;BME280;7205;50.864;12.766;2023-11-19T08:45:35;96987.81;;;10.46;100.00
14242;BME280;7205;50.864;12.766;2023-11-19T08:48:02;96991.16;;;10.55;100.00
14242;BME280;7205;50.864;12.766;2023-11-19T08:50:28;96994.22;;;10.58;100.00
14242;BME280;7205;50.864;12.766;2023-11-19T08:52:55;96981.28;;;10.63;100.00
14242;BME280;7205;50.864;12.766;2023-11-19T08:55:22;96992.88;;;10.69;100.00
14242;BME280;7205;50.864;12.766;2023-11-19T08:57:49;96979.91;;;10.74;100.00
14242;BME280;7205;50.864;12.766;2023-11-19T09:00:16;96993.78;;;10.82;100.00
14242;BME280;7205;50.864;12.766;2023-11-19T09:02:47;96996.28;;;10.90;100.00
14242;BME280;7205;50.864;12.766;2023-11-19T09:05:29;96967.69;;;11.00;100.00
14242;BME280;7205;50.864;12.766;2023-11-19T09:07:59;96967.72;;;11.07;100.00
14242;BME280;7205;50.864;12.766;2023-11-19T09:10:26;96987.31;;;11.19;100.00
14242;BME280;7205;50.864;12.766;2023-11-19T09:12:56;96984.09;;;11.23;100.00
14242;BME280;7205;50.864;12.766;2023-11-19T09:15:25;96982.69;;;11.27;100.00
14242;BME280;7205;50.864;12.766;2023-11-19T09:18:03;96994.09;;;11.28;100.00
14242;BME280;7205;50.864;12.766;2023-11-19T09:20:30;97002.19;;;11.26;100.00
14242;BME280;7205;50.864;12.766;2023-11-19T09:23:03;97002.00;;;11.28;100.00
14242;BME280;7205;50.864;12.766;2023-11-19T09:25:38;96995.69;;;11.29;100.00
14242;BME280;7205;50.864;12.766;2023-11-19T09:28:11;96995.16;;;11.40;100.00
14242;BME280;7205;50.864;12.766;2023-11-19T09:30:39;97001.09;;;11.49;100.00
14242;BME280;7205;50.864;12.766;2023-11-19T09:33:18;96996.03;;;11.54;100.00
14242;BME280;7205;50.864;12.766;2023-11-19T09:35:46;96998.50;;;11.62;100.00
14242;BME280;7205;50.864;12.766;2023-11-19T09:38:24;96998.31;;;11.63;100.00
14242;BME280;7205;50.864;12.766;2023-11-19T09:41:09;96994.69;;;11.64;100.00
14242;BME280;7205;50.864;12.766;2023-11-19T09:43:39;96992.84;;;11.65;100.00
14242;BME280;7205;50.864;12.766;2023-11-19T09:46:12;97004.25;;;11.65;100.00
14242;BME280;7205;50.864;12.766;2023-11-19T09:48:48;96995.28;;;11.66;100.00
14242;BME280;7205;50.864;12.766;2023-11-19T09:51:18;96993.69;;;11.65;100.00
14242;BME280;7205;50.864;12.766;2023-11-19T09:53:48;96994.47;;;11.66;100.00
14242;BME280;7205;50.864;12.766;2023-11-19T09:56:16;96995.50;;;11.65;100.00
14242;BME280;7205;50.864;12.766;2023-11-19T09:58:43;96995.28;;;11.66;100.00
14242;BME280;7205;50.864;12.766;2023-11-19T10:01:10;96997.50;;;11.63;100.00
14242;BME280;7205;50.864;12.766;2023-11-19T10:03:58;96992.56;;;11.53;100.00
14242;BME280;7205;50.864;12.766;2023-11-19T10:07:05;96992.94;;;11.44;100.00
14242;BME280;7205;50.864;12.766;2023-11-19T10:09:32;97000.69;;;11.45;100.00
14242;BME280;7205;50.864;12.766;2023-11-19T10:11:59;96994.16;;;11.48;100.00
14242;BME280;7205;50.864;12.766;2023-11-19T10:14:28;96994.59;;;11.51;100.00
14242;BME280;7205;50.864;12.766;2023-11-19T10:16:55;96984.22;;;11.50;100.00
14242;BME280;7205;50.864;12.766;2023-11-19T10:19:25;96991.16;;;11.57;100.00
14242;BME280;7205;50.864;12.766;2023-11-19T10:21:54;96987.31;;;11.60;100.00
14242;BME280;7205;50.864;12.766;2023-11-19T10:24:34;96988.97;;;11.67;100.00
14242;BME280;7205;50.864;12.766;2023-11-19T10:27:07;96991.28;;;11.77;100.00
14242;BME280;7205;50.864;12.766;2023-11-19T10:29:36;96991.72;;;11.87;100.00
14242;BME280;7205;50.864;12.766;2023-11-19T10:32:03;96986.84;;;11.90;100.00
14242;BME280;7205;50.864;12.766;2023-11-19T10:34:34;96980.75;;;11.96;100.00
14242;BME280;7205;50.864;12.766;2023-11-19T10:37:03;96978.13;;;12.03;100.00
14242;BME280;7205;50.864;12.766;2023-11-19T10:39:51;96974.06;;;12.07;100.00
14242;BME280;7205;50.864;12.766;2023-11-19T10:42:21;96980.97;;;12.14;100.00
14242;BME280;7205;50.864;12.766;2023-11-19T10:44:47;96988.72;;;12.22;100.00
14242;BME280;7205;50.864;12.766;2023-11-19T10:47:15;96984.25;;;12.29;100.00
14242;BME280;7205;50.864;12.766;2023-11-19T10:49:50;96983.47;;;12.35;100.00
14242;BME280;7205;50.864;12.766;2023-11-19T10:52:21;96969.41;;;12.41;100.00
14242;BME280;7205;50.864;12.766;2023-11-19T10:54:56;96973.50;;;12.50;100.00
14242;BME280;7205;50.864;12.766;2023-11-19T10:57:45;96970.25;;;12.55;100.00
14242;BME280;7205;50.864;12.766;2023-11-19T11:00:25;96978.59;;;12.65;100.00
14242;BME280;7205;50.864;12.766;2023-11-19T11:03:00;96969.81;;;12.64;100.00
14242;BME280;7205;50.864;12.766;2023-11-19T11:05:33;96971.88;;;12.76;100.00
14242;BME280;7205;50.864;12.766;2023-11-19T11:08:04;96979.41;;;12.85;100.00
14242;BME280;7205;50.864;12.766;2023-11-19T11:10:44;96981.22;;;12.91;100.00
14242;BME280;7205;50.864;12.766;2023-11-19T11:13:17;96963.69;;;12.97;100.00
14242;BME280;7205;50.864;12.766;2023-11-19T11:15:45;96969.59;;;12.99;100.00
14242;BME280;7205;50.864;12.766;2023-11-19T11:18:13;96962.91;;;13.03;100.00
14242;BME280;7205;50.864;12.766;2023-11-19T11:20:43;96956.56;;;13.04;100.00
14242;BME280;7205;50.864;12.766;2023-11-19T11:26:45;96947.78;;;12.97;100.00
14242;BME280;7205;50.864;12.766;2023-11-19T11:29:24;96948.41;;;12.99;100.00
14242;BME280;7205;50.864;12.766;2023-11-19T11:32:00;96945.16;;;13.03;100.00
14242;BME280;7205;50.864;12.766;2023-11-19T11:35:08;96959.19;;;13.10;100.00
14242;BME280;7205;50.864;12.766;2023-11-19T11:37:44;96937.56;;;13.13;100.00
14242;BME280;7205;50.864;12.766;2023-11-19T11:40:14;96939.44;;;13.13;100.00
14242;BME280;7205;50.864;12.766;2023-11-19T11:42:41;96941.69;;;13.09;99.31
14242;BME280;7205;50.864;12.766;2023-11-19T11:45:13;96943.09;;;13.05;97.42
14242;BME280;7205;50.864;12.766;2023-11-19T11:48:08;96948.84;;;13.02;96.74
14242;BME280;7205;50.864;12.766;2023-11-19T11:50:53;96940.88;;;12.96;95.36
14242;BME280;7205;50.864;12.766;2023-11-19T11:57:49;96936.81;;;12.67;92.95
14242;BME280;7205;50.864;12.766;2023-11-19T12:00:54;96948.63;;;12.51;92.85
14242;BME280;7205;50.864;12.766;2023-11-19T12:04:05;96952.50;;;12.29;92.05
14242;BME280;7205;50.864;12.766;2023-11-19T12:06:36;96950.88;;;12.22;92.34
14242;BME280;7205;50.864;12.766;2023-11-19T12:09:03;96953.94;;;12.19;92.41
14242;BME280;7205;50.864;12.766;2023-11-19T12:11:35;96959.03;;;12.14;93.34
14242;BME280;7205;50.864;12.766;2023-11-19T12:14:16;96953.69;;;12.07;94.18
14242;BME280;7205;50.864;12.766;2023-11-19T12:19:24;96949.63;;;12.05;96.19
14242;BME280;7205;50.864;12.766;2023-11-19T12:21:52;96942.31;;;12.07;97.75
14242;BME280;7205;50.864;12.766;2023-11-19T12:24:25;96941.28;;;12.08;98.90
14242;BME280;7205;50.864;12.766;2023-11-19T12:26:52;96929.69;;;12.15;100.00
14242;BME280;7205;50.864;12.766;2023-11-19T12:29:23;96939.06;;;12.24;100.00
14242;BME280;7205;50.864;12.766;2023-11-19T12:31:54;96932.75;;;12.25;100.00
14242;BME280;7205;50.864;12.766;2023-11-19T12:34:20;96939.88;;;12.31;99.23
14242;BME280;7205;50.864;12.766;2023-11-19T12:36:48;96932.16;;;12.30;99.43
14242;BME280;7205;50.864;12.766;2023-11-19T12:39:15;96942.72;;;12.36;100.00
14242;BME280;7205;50.864;12.766;2023-11-19T12:41:50;96933.97;;;12.42;100.00
14242;BME280;7205;50.864;12.766;2023-11-19T12:44:18;96940.28;;;12.48;100.00
14242;BME280;7205;50.864;12.766;2023-11-19T12:46:46;96931.13;;;12.57;100.00
14242;BME280;7205;50.864;12.766;2023-11-19T12:49:12;96931.72;;;12.72;99.52
14242;BME280;7205;50.864;12.766;2023-11-19T12:51:39;96936.59;;;12.82;98.62
14242;BME280;7205;50.864;12.766;2023-11-19T12:54:06;96929.88;;;12.92;97.55
14242;BME280;7205;50.864;12.766;2023-11-19T12:56:33;96943.72;;;13.07;96.14
14242;BME280;7205;50.864;12.766;2023-11-19T12:59:10;96931.84;;;13.16;94.28
14242;BME280;7205;50.864;12.766;2023-11-19T13:01:38;96923.69;;;13.24;92.99
14242;BME280;7205;50.864;12.766;2023-11-19T13:04:17;96930.19;;;13.28;91.25
14242;BME280;7205;50.864;12.766;2023-11-19T13:06:45;96935.06;;;13.31;90.09
14242;BME280;7205;50.864;12.766;2023-11-19T13:09:21;96917.31;;;13.32;88.74
14242;BME280;7205;50.864;12.766;2023-11-19T13:11:51;96927.31;;;13.30;87.43
14242;BME280;7205;50.864;12.766;2023-11-19T13:14:21;96917.56;;;13.24;86.43
14242;BME280;7205;50.864;12.766;2023-11-19T13:16:48;96910.84;;;13.15;85.18
14242;BME280;7205;50.864;12.766;2023-11-19T13:19:17;96912.72;;;13.01;84.18
14242;BME280;7205;50.864;12.766;2023-11-19T13:21:44;96912.34;;;12.85;83.89
14242;BME280;7205;50.864;12.766;2023-11-19T13:24:12;96925.59;;;12.72;84.32
14242;BME280;7205;50.864;12.766;2023-11-19T13:26:39;96915.84;;;12.59;84.47
14242;BME280;7205;50.864;12.766;2023-11-19T13:29:06;96925.84;;;12.50;84.95
14242;BME280;7205;50.864;12.766;2023-11-19T13:31:33;96917.50;;;12.40;85.08